createdAt,value
2023-03-23T00:00:14.218Z,395.00
2023-03-23T00:04:14.406Z,393.00
2023-03-23T00:08:14.282Z,392.00
2023-03-23T00:12:14.563Z,400.00
2023-03-23T00:16:14.690Z,402.00
2023-03-23T00:20:14.722Z,398.00
2023-03-23T00:24:14.732Z,398.00
2023-03-23T00:28:15.023Z,399.00
2023-03-23T00:32:15.205Z,400.00
2023-03-23T00:36:15.359Z,397.00
2023-03-23T00:40:15.503Z,401.00
2023-03-23T00:44:15.749Z,402.00
2023-03-23T00:48:16.647Z,398.00
2023-03-23T00:52:15.470Z,394.00
2023-03-23T00:56:15.559Z,392.00
2023-03-23T01:00:15.391Z,396.00
2023-03-23T01:04:15.582Z,393.00
2023-03-23T01:08:15.350Z,392.00
2023-03-23T01:12:15.587Z,390.00
2023-03-23T01:16:15.226Z,393.00
2023-03-23T01:20:15.770Z,393.00
2023-03-23T01:24:15.154Z,388.00
2023-03-23T01:28:15.174Z,392.00
2023-03-23T01:32:15.095Z,391.00
2023-03-23T01:36:15.240Z,388.00
2023-03-23T01:40:15.357Z,392.00
2023-03-23T01:44:15.722Z,391.00
2023-03-23T01:48:15.670Z,390.00
2023-03-23T01:52:16.093Z,388.00
2023-03-23T01:56:16.444Z,385.00
2023-03-23T02:00:16.267Z,388.00
2023-03-23T02:04:16.487Z,385.00
2023-03-23T02:08:16.585Z,387.00
2023-03-23T02:12:17.251Z,386.00
2023-03-23T02:16:16.957Z,384.00
2023-03-23T02:20:17.197Z,382.00
2023-03-23T02:24:18.678Z,383.00
2023-03-23T02:28:17.838Z,387.00
2023-03-23T02:32:17.800Z,388.00
2023-03-23T02:36:18.291Z,385.00
2023-03-23T02:40:19.990Z,384.00
2023-03-23T02:44:18.401Z,386.00
2023-03-23T02:48:19.045Z,384.00
2023-03-23T02:52:19.010Z,386.00
2023-03-23T02:56:19.241Z,384.00
2023-03-23T03:00:18.989Z,388.00
2023-03-23T03:04:19.423Z,381.00
2023-03-23T03:08:19.356Z,385.00
2023-03-23T03:12:18.976Z,384.00
2023-03-23T03:16:19.655Z,381.00
2023-03-23T03:20:18.844Z,379.00
2023-03-23T03:24:18.853Z,380.00
2023-03-23T03:28:18.738Z,383.00
2023-03-23T03:32:19.085Z,378.00
2023-03-23T03:36:19.072Z,376.00
2023-03-23T03:40:18.823Z,376.00
2023-03-23T03:44:19.013Z,380.00
2023-03-23T03:48:19.191Z,381.00
2023-03-23T03:52:18.593Z,377.00
2023-03-23T03:56:18.867Z,378.00
2023-03-23T04:00:18.966Z,379.00
2023-03-23T04:04:19.802Z,378.00
2023-03-23T04:08:18.893Z,380.00
2023-03-23T04:12:18.729Z,374.00
2023-03-23T04:16:18.459Z,377.00
2023-03-23T04:20:18.402Z,376.00
2023-03-23T04:24:23.323Z,379.00
2023-03-23T04:28:19.806Z,374.00
2023-03-23T04:32:18.393Z,374.00
2023-03-23T04:36:18.379Z,377.00
2023-03-23T04:40:18.211Z,374.00
2023-03-23T04:44:18.249Z,374.00
2023-03-23T04:48:18.849Z,372.00
2023-03-23T04:52:18.778Z,375.00
2023-03-23T04:56:18.368Z,378.00
2023-03-23T05:00:18.349Z,375.00
2023-03-23T05:04:18.406Z,374.00
2023-03-23T05:08:18.267Z,385.00
2023-03-23T05:12:18.330Z,393.00
2023-03-23T05:16:18.225Z,402.00
2023-03-23T05:20:18.163Z,405.00
2023-03-23T05:24:18.143Z,407.00
2023-03-23T05:28:18.063Z,414.00
2023-03-23T05:32:18.638Z,415.00
2023-03-23T05:36:20.094Z,417.00
2023-03-23T05:40:18.493Z,414.00
2023-03-23T05:44:18.253Z,411.00
2023-03-23T05:48:18.052Z,410.00
2023-03-23T05:52:18.427Z,412.00
2023-03-23T05:56:18.153Z,410.00
2023-03-23T06:00:18.032Z,411.00
2023-03-23T06:04:17.910Z,414.00
2023-03-23T06:08:18.204Z,411.00
2023-03-23T06:12:19.556Z,412.00
2023-03-23T06:16:17.911Z,410.00
2023-03-23T06:20:17.984Z,405.00
2023-03-23T06:24:17.829Z,408.00
2023-03-23T06:28:18.086Z,407.00
2023-03-23T06:32:18.281Z,406.00
2023-03-23T06:36:17.822Z,441.00
2023-03-23T06:40:17.945Z,606.00
2023-03-23T06:44:17.692Z,647.00
2023-03-23T06:48:18.642Z,690.00
2023-03-23T06:52:17.688Z,715.00
2023-03-23T06:56:17.618Z,730.00
2023-03-23T07:00:17.522Z,739.00
2023-03-23T07:04:18.163Z,753.00
2023-03-23T07:08:17.475Z,782.00
2023-03-23T07:12:23.271Z,796.00
2023-03-23T07:16:19.140Z,785.00
2023-03-23T07:20:17.373Z,790.00
2023-03-23T07:24:17.357Z,794.00
2023-03-23T07:28:17.267Z,800.00
2023-03-23T07:32:17.947Z,813.00
2023-03-23T07:36:18.125Z,814.00
2023-03-23T07:40:17.526Z,795.00
2023-03-23T07:44:17.282Z,754.00
2023-03-23T07:48:21.251Z,770.00
2023-03-23T07:52:17.220Z,777.00
2023-03-23T07:56:17.183Z,787.00
2023-03-23T08:00:17.121Z,776.00
2023-03-23T08:04:17.095Z,778.00
2023-03-23T08:08:17.083Z,780.00
2023-03-23T08:12:17.047Z,786.00
2023-03-23T08:16:17.174Z,800.00
2023-03-23T08:20:17.343Z,802.00
2023-03-23T08:24:17.743Z,801.00
2023-03-23T08:28:18.264Z,796.00
2023-03-23T08:32:17.937Z,772.00
2023-03-23T08:36:18.218Z,764.00
2023-03-23T08:40:18.755Z,716.00
2023-03-23T08:44:18.234Z,715.00
2023-03-23T08:48:18.253Z,719.00
2023-03-23T08:52:18.551Z,721.00
2023-03-23T08:56:18.368Z,730.00
2023-03-23T09:00:18.558Z,723.00
2023-03-23T09:04:18.683Z,710.00
2023-03-23T09:08:18.910Z,710.00
2023-03-23T09:12:19.627Z,704.00
2023-03-23T09:16:18.857Z,704.00
2023-03-23T09:20:18.787Z,700.00
2023-03-23T09:24:19.582Z,696.00
2023-03-23T09:28:18.808Z,720.00
2023-03-23T09:32:18.683Z,665.00
2023-03-23T09:36:18.657Z,626.00
2023-03-23T09:40:18.619Z,592.00
2023-03-23T09:44:18.848Z,587.00
2023-03-23T09:48:19.211Z,674.00
2023-03-23T09:52:18.749Z,713.00
2023-03-23T09:56:19.615Z,737.00
2023-03-23T10:00:18.990Z,754.00
2023-03-23T10:04:19.081Z,778.00
2023-03-23T10:08:19.125Z,793.00
2023-03-23T10:12:19.183Z,809.00
2023-03-23T10:16:19.240Z,824.00
2023-03-23T10:20:19.668Z,832.00
2023-03-23T10:24:19.541Z,850.00
2023-03-23T10:28:19.547Z,860.00
2023-03-23T10:32:19.523Z,867.00
2023-03-23T10:36:19.597Z,841.00
2023-03-23T10:40:22.187Z,764.00
2023-03-23T10:44:19.633Z,701.00
2023-03-23T10:48:19.606Z,662.00
2023-03-23T10:52:19.828Z,624.00
2023-03-23T10:56:19.857Z,602.00
2023-03-23T11:00:19.865Z,573.00
2023-03-23T11:04:19.492Z,558.00
2023-03-23T11:08:19.365Z,539.00
2023-03-23T11:12:19.977Z,526.00
2023-03-23T11:16:19.783Z,511.00
2023-03-23T11:20:19.534Z,499.00
2023-03-23T11:24:19.304Z,489.00
2023-03-23T11:28:19.306Z,479.00
2023-03-23T11:32:19.173Z,445.00
2023-03-23T11:36:19.377Z,461.00
2023-03-23T11:40:19.088Z,519.00
2023-03-23T11:44:19.051Z,504.00
2023-03-23T11:48:19.157Z,518.00
2023-03-23T11:52:19.167Z,530.00
2023-03-23T11:56:19.340Z,546.00
2023-03-23T12:00:19.380Z,545.00
2023-03-23T12:04:20.004Z,545.00
2023-03-23T12:12:19.720Z,539.00
2023-03-23T12:16:19.737Z,541.00
2023-03-23T12:20:19.808Z,538.00
2023-03-23T12:24:19.837Z,531.00
2023-03-23T12:28:19.955Z,518.00
2023-03-23T12:32:20.168Z,551.00
2023-03-23T12:36:20.406Z,562.00
2023-03-23T12:40:20.358Z,561.00
2023-03-23T12:44:20.336Z,536.00
2023-03-23T12:48:20.663Z,507.00
2023-03-23T12:52:20.253Z,489.00
2023-03-23T12:56:20.222Z,474.00
2023-03-23T13:00:20.185Z,457.00
2023-03-23T13:04:21.033Z,445.00
2023-03-23T13:08:24.503Z,438.00
2023-03-23T13:12:20.115Z,429.00
2023-03-23T13:16:20.062Z,428.00
2023-03-23T13:20:20.280Z,422.00
2023-03-23T13:24:20.156Z,419.00
2023-03-23T13:28:19.921Z,420.00
2023-03-23T13:32:20.218Z,418.00
2023-03-23T13:36:19.979Z,415.00
2023-03-23T13:40:20.109Z,417.00
2023-03-23T13:44:19.971Z,415.00
2023-03-23T13:48:20.636Z,415.00
2023-03-23T13:52:19.726Z,418.00
2023-03-23T13:56:19.773Z,416.00
2023-03-23T14:00:19.777Z,423.00
2023-03-23T14:04:20.011Z,421.00
2023-03-23T14:08:20.113Z,423.00
2023-03-23T14:12:20.021Z,421.00
2023-03-23T14:16:20.400Z,422.00
2023-03-23T14:20:20.397Z,422.00
2023-03-23T14:24:20.473Z,420.00
2023-03-23T14:28:20.023Z,417.00
2023-03-23T14:32:20.364Z,421.00
2023-03-23T14:36:20.188Z,423.00
2023-03-23T14:40:20.151Z,424.00
2023-03-23T14:44:20.216Z,419.00
2023-03-23T14:48:20.466Z,420.00
2023-03-23T14:52:20.522Z,420.00
2023-03-23T14:56:20.451Z,420.00
2023-03-23T15:00:20.777Z,415.00
2023-03-23T15:04:20.955Z,415.00
2023-03-23T15:08:20.752Z,418.00
2023-03-23T15:12:21.327Z,422.00
2023-03-23T15:16:21.196Z,421.00
2023-03-23T15:20:21.282Z,422.00
2023-03-23T15:24:21.274Z,414.00
2023-03-23T15:28:21.432Z,417.00
2023-03-23T15:32:21.298Z,420.00
2023-03-23T15:36:21.253Z,415.00
2023-03-23T15:40:21.419Z,418.00
2023-03-23T15:44:21.363Z,426.00
2023-03-23T15:48:21.126Z,425.00
2023-03-23T15:52:21.494Z,423.00
2023-03-23T15:56:21.384Z,423.00
2023-03-23T16:00:21.178Z,424.00
2023-03-23T16:04:21.161Z,421.00
2023-03-23T16:08:21.028Z,418.00
2023-03-23T16:12:21.892Z,417.00
2023-03-23T16:16:21.383Z,416.00
2023-03-23T16:20:20.925Z,418.00
2023-03-23T16:24:20.979Z,418.00
2023-03-23T16:36:44.890Z,414.00
2023-03-23T16:40:45.130Z,416.00
2023-03-23T16:44:44.873Z,422.00
2023-03-23T16:48:44.837Z,419.00
2023-03-23T16:52:46.404Z,420.00
2023-03-23T16:56:44.771Z,419.00
2023-03-23T17:00:44.712Z,418.00
2023-03-23T17:04:45.115Z,417.00
2023-03-23T17:08:44.756Z,419.00
2023-03-23T17:12:44.691Z,417.00
2023-03-23T17:16:45.013Z,412.00
2023-03-23T17:20:44.892Z,415.00
2023-03-23T17:24:45.002Z,417.00
2023-03-23T17:28:45.119Z,415.00
2023-03-23T17:32:45.641Z,417.00
2023-03-23T17:36:45.485Z,415.00
2023-03-23T17:40:45.722Z,412.00
2023-03-23T17:44:46.027Z,413.00
2023-03-23T17:48:45.936Z,418.00
2023-03-23T17:52:46.150Z,414.00
2023-03-23T17:56:46.357Z,413.00
2023-03-23T18:00:46.607Z,418.00
2023-03-23T18:04:46.654Z,417.00
2023-03-23T18:08:47.122Z,413.00
2023-03-23T18:12:46.858Z,409.00
2023-03-23T18:16:46.851Z,407.00
2023-03-23T18:20:47.165Z,410.00
2023-03-23T18:24:47.082Z,416.00
2023-03-23T18:28:46.763Z,431.00
2023-03-23T18:32:46.701Z,428.00
2023-03-23T18:36:46.779Z,429.00
2023-03-23T18:40:46.681Z,424.00
2023-03-23T18:44:46.616Z,422.00
2023-03-23T18:48:46.528Z,426.00
2023-03-23T18:52:46.918Z,423.00
2023-03-23T18:56:46.638Z,424.00
2023-03-23T19:00:46.436Z,424.00
2023-03-23T19:04:46.576Z,423.00
2023-03-23T19:08:46.484Z,424.00
2023-03-23T19:12:47.308Z,423.00
2023-03-23T19:16:46.319Z,423.00
2023-03-23T19:21:12.587Z,417.00
2023-03-23T19:24:47.538Z,426.00
2023-03-23T19:29:23.309Z,421.00
2023-03-23T19:32:47.214Z,418.00
2023-03-23T19:36:54.378Z,418.00
2023-03-23T19:40:48.225Z,417.00
2023-03-23T19:44:46.763Z,415.00
2023-03-23T19:48:46.650Z,415.00
2023-03-23T19:52:46.093Z,415.00
2023-03-23T19:56:45.984Z,421.00
2023-03-23T20:00:46.071Z,421.00
2023-03-23T20:04:46.501Z,419.00
2023-03-23T20:08:46.426Z,422.00
2023-03-23T20:12:46.550Z,420.00
2023-03-23T20:16:46.377Z,418.00
2023-03-23T20:20:50.153Z,424.00
2023-03-23T20:24:47.380Z,421.00
2023-03-23T20:28:47.649Z,423.00
2023-03-23T20:32:46.347Z,421.00
2023-03-23T20:36:46.189Z,421.00
2023-03-23T20:40:46.176Z,419.00
2023-03-23T20:44:49.377Z,418.00
2023-03-23T20:48:46.190Z,414.00
2023-03-23T20:52:46.093Z,416.00
2023-03-23T20:56:46.119Z,418.00
2023-03-23T21:00:46.030Z,418.00
2023-03-23T21:04:46.359Z,418.00
2023-03-23T21:08:45.953Z,413.00
2023-03-23T21:12:46.308Z,419.00
2023-03-23T21:16:45.969Z,412.00
2023-03-23T21:20:46.103Z,415.00
2023-03-23T21:24:45.786Z,417.00
2023-03-23T21:28:45.764Z,420.00
2023-03-23T21:32:45.749Z,418.00
2023-03-23T21:36:45.665Z,420.00
2023-03-23T21:40:46.895Z,421.00
2023-03-23T21:44:45.734Z,416.00
2023-03-23T21:48:45.527Z,419.00
2023-03-23T21:52:45.792Z,416.00
2023-03-23T21:56:46.130Z,422.00
2023-03-23T22:00:46.238Z,421.00
2023-03-23T22:04:45.523Z,425.00
2023-03-23T22:08:45.560Z,415.00
2023-03-23T22:12:46.280Z,414.00
2023-03-23T22:16:46.829Z,419.00
2023-03-23T22:20:46.087Z,418.00
2023-03-23T22:24:46.056Z,419.00
2023-03-23T22:28:46.033Z,421.00
2023-03-23T22:32:46.161Z,424.00
2023-03-23T22:36:46.685Z,422.00
2023-03-23T22:40:46.878Z,420.00
2023-03-23T22:44:46.868Z,418.00
2023-03-23T22:48:47.055Z,419.00
2023-03-23T22:52:47.091Z,419.00
2023-03-23T22:56:47.364Z,419.00
2023-03-23T23:00:49.495Z,419.00
2023-03-23T23:04:47.231Z,414.00
2023-03-23T23:08:47.903Z,417.00
2023-03-23T23:12:47.557Z,415.00
2023-03-23T23:16:47.691Z,417.00
2023-03-23T23:20:48.085Z,416.00
2023-03-23T23:24:48.224Z,420.00
2023-03-23T23:28:48.381Z,418.00
2023-03-23T23:32:48.411Z,419.00
2023-03-23T23:36:48.638Z,412.00
2023-03-23T23:40:48.981Z,410.00
2023-03-23T23:44:48.783Z,414.00
2023-03-23T23:48:49.238Z,416.00
2023-03-23T23:52:49.333Z,423.00
2023-03-23T23:56:49.793Z,419.00
